Observations for Trim Market St
| Time | AQI | Temp °C | Hum % | Pres Pa | CO μg/m³ | H₂S μg/m³ | NO μg/m³ | NO₂ μg/m³ | O₃ μg/m³ | SO₂ μg/m³ | PM1 μg/m³ | PM2.5 μg/m³ | PM10 μg/m³ |
|---|---|---|---|---|---|---|---|---|---|---|---|---|---|
| Sunday 23 August 2026 | |||||||||||||
| 23:31 | 2 | 12.5 | 67 | 57,118 | 0.38 | 0 | 2.74 | 12.96 | 40.22 | 0 | 0.71 | 2.2 | 4.32 |
| 23:30 | 2 | 12.5 | 67 | 57,129 | 0.38 | 0 | 2.61 | 14.42 | 39.32 | 0 | 0.71 | 3.19 | 5.6 |
| 23:29 | 2 | 12.6 | 67 | 57,140 | 0.38 | 0 | 2.7 | 12.88 | 41.1 | 0 | 0.71 | 2.21 | 4.96 |
| 23:28 | 2 | 12.6 | 67 | 57,152 | 0.38 | 0 | 3.25 | 13.87 | 40.38 | 0 | 1.43 | 3.19 | 5.6 |
| 23:27 | 2 | 12.6 | 67 | 57,168 | 0.4 | 0 | 3.18 | 12.65 | 43.92 | 0 | 0 | 2.21 | 3.66 |
| 23:24 | 2 | 12.7 | 67 | 57,198 | 0.41 | 0 | 3.23 | 20.63 | 35.47 | 0 | 1.43 | 3.7 | 6.88 |
| 23:21 | 2 | 12.7 | 67 | 57,238 | 0.45 | 0 | 2.54 | 14.56 | 40.74 | 0 | 0.71 | 3.21 | 4.94 |
| 23:19 | 2 | 12.8 | 66 | 57,262 | 0.51 | 0 | 2.21 | 13.18 | 43.29 | 0 | 1.43 | 3.71 | 5.59 |
| 23:14 | 2 | 12.8 | 66 | 57,326 | 0.59 | 0 | 2.07 | 12.43 | 45.06 | 0 | 0.71 | 3.24 | 6.23 |
| 23:10 | 3 | 12.9 | 66 | 57,364 | 0.37 | 0 | 2.05 | 25.3 | 30.1 | 0 | 1.43 | 3.74 | 5.57 |
| 23:08 | 3 | 13 | 66 | 57,383 | 0.37 | 0 | 2.11 | 20.39 | 38.17 | 0 | 1.43 | 3.26 | 5.57 |
| 23:07 | 3 | 13 | 66 | 57,392 | 0.35 | 0 | 2.26 | 14.02 | 44.55 | 0 | 1.43 | 3.26 | 4.92 |
| 23:05 | 3 | 13 | 66 | 57,410 | 0.36 | 0 | 2.9 | 17.14 | 41.31 | 0 | 1.43 | 3.27 | 4.92 |
| 23:04 | 3 | 13.1 | 65 | 57,423 | 0.36 | 0 | 3.75 | 14.9 | 43.53 | 0 | 0 | 2.78 | 4.91 |
| 23:03 | 3 | 13.1 | 65 | 57,435 | 0.37 | 0 | 3.57 | 20.29 | 38.9 | 0 | 0.71 | 2.78 | 4.26 |
| 23:02 | 3 | 13.1 | 65 | 57,445 | 0.36 | 0 | 3.58 | 18.91 | 40.02 | 0 | 1.43 | 3.77 | 5.57 |
| 23:01 | 3 | 13.1 | 65 | 57,454 | 0.37 | 0 | 2.95 | 29.21 | 24.87 | 0 | 1.43 | 3.77 | 5.57 |
| 22:59 | 3 | 13.2 | 65 | 57,473 | 0.36 | 0 | 1.91 | 16.41 | 43.77 | 0 | 1.43 | 4.27 | 6.87 |
| 22:57 | 3 | 13.2 | 65 | 57,493 | 0.36 | 0 | 1.84 | 12.08 | 50.61 | 0 | 2.14 | 3.78 | 5.56 |
| 22:54 | 3 | 13.3 | 65 | 57,512 | 0.35 | 0 | 1.92 | 14.58 | 45.42 | 0 | 1.43 | 3.3 | 6.21 |